createdAt,value
2018-07-26T00:00:10.610Z,22.7
2018-07-26T00:01:13.220Z,22.6
2018-07-26T00:02:15.269Z,22.5
2018-07-26T00:03:17.992Z,22.5
2018-07-26T00:04:20.425Z,22.6
2018-07-26T00:05:22.470Z,22.6
2018-07-26T00:06:24.516Z,22.6
2018-07-26T00:07:26.555Z,22.7
2018-07-26T00:08:28.606Z,22.8
2018-07-26T00:09:30.662Z,22.9
2018-07-26T00:10:32.696Z,22.9
2018-07-26T00:11:34.760Z,22.7
2018-07-26T00:12:36.794Z,22.4
2018-07-26T00:13:38.842Z,22.5
2018-07-26T00:14:41.186Z,22.5
2018-07-26T00:15:43.615Z,22.5
2018-07-26T00:16:45.948Z,22.5
2018-07-26T00:17:47.990Z,22.5
2018-07-26T00:18:50.339Z,22.5
2018-07-26T00:19:52.375Z,22.5
2018-07-26T00:20:54.711Z,22.5
2018-07-26T00:21:56.760Z,22.5
2018-07-26T00:22:58.797Z,22.4
2018-07-26T00:24:00.861Z,22.4
2018-07-26T00:25:03.198Z,22.4
2018-07-26T00:26:05.251Z,22.3
2018-07-26T00:27:07.291Z,22.3
2018-07-26T00:28:09.351Z,22.3
2018-07-26T00:29:11.397Z,22.2
2018-07-26T00:30:13.441Z,22.2
2018-07-26T00:31:15.501Z,22.1
2018-07-26T00:32:17.822Z,22.1
2018-07-26T00:33:19.869Z,22.1
2018-07-26T00:34:21.923Z,22.1
2018-07-26T00:35:23.974Z,22
2018-07-26T00:36:26.005Z,22
2018-07-26T00:37:28.053Z,22
2018-07-26T00:38:30.103Z,22
2018-07-26T00:39:32.432Z,21.9
2018-07-26T00:40:34.494Z,21.9
2018-07-26T00:41:36.541Z,21.9
2018-07-26T00:42:38.864Z,21.9
2018-07-26T00:43:40.922Z,21.9
2018-07-26T00:44:42.962Z,21.9
2018-07-26T00:45:45.008Z,21.9
2018-07-26T00:46:47.053Z,21.9
2018-07-26T00:47:49.473Z,21.9
2018-07-26T00:48:51.952Z,22
2018-07-26T00:49:54.219Z,22
2018-07-26T00:50:56.573Z,22
2018-07-26T00:51:58.610Z,22
2018-07-26T00:53:00.672Z,22
2018-07-26T00:54:02.720Z,22
2018-07-26T00:55:04.765Z,22
2018-07-26T00:56:06.817Z,22
2018-07-26T00:57:08.870Z,22
2018-07-26T00:58:10.920Z,22
2018-07-26T00:59:12.973Z,21.9
2018-07-26T01:00:15.010Z,21.9
2018-07-26T01:01:17.074Z,21.9
2018-07-26T01:02:19.414Z,21.8
2018-07-26T01:03:21.462Z,21.8
2018-07-26T01:04:23.516Z,21.7
2018-07-26T01:05:25.551Z,21.7
2018-07-26T01:06:28.276Z,21.6
2018-07-26T01:07:30.328Z,21.6
2018-07-26T01:08:32.378Z,21.6
2018-07-26T01:09:34.859Z,21.6
2018-07-26T01:10:36.884Z,21.5
2018-07-26T01:11:39.258Z,21.5
2018-07-26T01:12:41.306Z,21.4
2018-07-26T01:13:43.649Z,21.4
2018-07-26T01:14:45.698Z,21.3
2018-07-26T01:15:47.739Z,21.3
2018-07-26T01:16:49.799Z,21.3
2018-07-26T01:17:51.841Z,21.3
2018-07-26T01:18:53.892Z,21.3
2018-07-26T01:19:56.326Z,21.3
2018-07-26T01:20:58.368Z,21.3
2018-07-26T01:22:00.417Z,21.3
2018-07-26T01:23:02.463Z,21.3
2018-07-26T01:24:04.513Z,21.3
2018-07-26T01:25:06.548Z,21.2
2018-07-26T01:26:08.892Z,21.2
2018-07-26T01:27:10.940Z,21.2
2018-07-26T01:28:12.985Z,21.2
2018-07-26T01:29:15.042Z,21.2
2018-07-26T01:30:17.083Z,21.3
2018-07-26T01:31:19.409Z,21.3
2018-07-26T01:32:21.450Z,21.2
2018-07-26T01:33:23.509Z,21.2
2018-07-26T01:34:25.877Z,21.1
2018-07-26T01:35:27.916Z,21.1
2018-07-26T01:36:29.967Z,21.1
2018-07-26T01:37:32.000Z,21.1
2018-07-26T01:38:34.057Z,21.1
2018-07-26T01:39:36.392Z,21.1
2018-07-26T01:40:38.428Z,21.1
2018-07-26T01:41:40.472Z,21
2018-07-26T01:42:42.818Z,21
2018-07-26T01:43:45.155Z,21
2018-07-26T01:44:47.491Z,21
2018-07-26T01:45:49.540Z,21
2018-07-26T01:46:51.962Z,21
2018-07-26T01:47:54.009Z,21
2018-07-26T01:48:56.446Z,21
2018-07-26T01:49:58.480Z,21
2018-07-26T01:51:00.920Z,21
2018-07-26T01:52:03.248Z,21
2018-07-26T01:53:05.292Z,20.9
2018-07-26T01:54:07.351Z,20.9
2018-07-26T01:55:09.390Z,20.9
2018-07-26T01:56:11.440Z,20.8
2018-07-26T01:57:13.480Z,20.8
2018-07-26T01:58:15.539Z,20.8
2018-07-26T01:59:17.890Z,20.8
2018-07-26T02:00:19.937Z,20.8
2018-07-26T02:01:22.371Z,20.8
2018-07-26T02:02:24.407Z,20.8
2018-07-26T02:03:26.460Z,20.8
2018-07-26T02:04:28.504Z,20.7
2018-07-26T02:05:30.557Z,20.7
2018-07-26T02:06:32.869Z,20.7
2018-07-26T02:07:35.247Z,20.7
2018-07-26T02:08:37.294Z,20.6
2018-07-26T02:09:39.618Z,20.6
2018-07-26T02:10:41.718Z,20.6
2018-07-26T02:11:44.012Z,20.5
2018-07-26T02:12:46.057Z,20.6
2018-07-26T02:13:48.380Z,20.6
2018-07-26T02:14:50.425Z,20.5
2018-07-26T02:15:52.481Z,20.5
2018-07-26T02:16:54.833Z,20.5
2018-07-26T02:17:57.266Z,20.5
2018-07-26T02:18:59.313Z,20.5
2018-07-26T02:20:01.650Z,20.4
2018-07-26T02:21:03.704Z,20.4
2018-07-26T02:22:06.133Z,20.4
2018-07-26T02:23:08.169Z,20.3
2018-07-26T02:24:10.222Z,20.3
2018-07-26T02:25:12.271Z,20.3
2018-07-26T02:26:14.314Z,20.3
2018-07-26T02:27:16.372Z,20.3
2018-07-26T02:28:18.693Z,20.3
2018-07-26T02:29:20.737Z,20.3
2018-07-26T02:30:23.065Z,20.3
2018-07-26T02:31:25.118Z,20.3
2018-07-26T02:32:27.551Z,20.3
2018-07-26T02:33:29.607Z,20.3
2018-07-26T02:34:32.608Z,20.2
2018-07-26T02:35:35.033Z,20.2
2018-07-26T02:36:37.136Z,20.2
2018-07-26T02:37:39.138Z,20.2
2018-07-26T02:38:41.185Z,20.2
2018-07-26T02:39:43.782Z,20.2
2018-07-26T02:40:45.839Z,20.2
2018-07-26T02:41:47.882Z,20.1
2018-07-26T02:42:50.209Z,20.1
2018-07-26T02:43:52.266Z,20.1
2018-07-26T02:44:55.360Z,20.1
2018-07-26T02:45:57.408Z,20.1
2018-07-26T02:46:59.746Z,20.1
2018-07-26T02:48:02.080Z,20.1
2018-07-26T02:49:04.400Z,20.1
2018-07-26T02:50:06.443Z,20
2018-07-26T02:51:08.877Z,20
2018-07-26T02:52:11.511Z,20
2018-07-26T02:53:13.569Z,20
2018-07-26T02:54:15.936Z,20
2018-07-26T02:55:17.980Z,20
2018-07-26T02:56:20.327Z,20
2018-07-26T02:57:22.373Z,20
2018-07-26T02:58:24.417Z,20
2018-07-26T02:59:26.752Z,19.9
2018-07-26T03:00:29.077Z,19.9
2018-07-26T03:01:31.413Z,19.9
2018-07-26T03:02:33.750Z,19.9
2018-07-26T03:03:35.798Z,19.9
2018-07-26T03:04:37.833Z,19.9
2018-07-26T03:05:40.187Z,19.8
2018-07-26T03:06:42.546Z,19.8
2018-07-26T03:07:44.592Z,19.8
2018-07-26T03:08:46.652Z,19.9
2018-07-26T03:09:48.688Z,19.9
2018-07-26T03:10:51.124Z,19.9
2018-07-26T03:11:53.162Z,19.8
2018-07-26T03:12:55.604Z,19.8
2018-07-26T03:13:57.637Z,19.8
2018-07-26T03:14:59.684Z,19.8
2018-07-26T03:16:02.721Z,19.8
2018-07-26T03:17:04.765Z,19.8
2018-07-26T03:18:07.100Z,19.8
2018-07-26T03:19:09.537Z,19.8
2018-07-26T03:20:11.961Z,19.8
2018-07-26T03:21:14.684Z,19.7
2018-07-26T03:22:16.747Z,19.7
2018-07-26T03:23:19.081Z,19.7
2018-07-26T03:24:21.800Z,19.7
2018-07-26T03:25:24.145Z,19.8
2018-07-26T03:26:26.179Z,19.8
2018-07-26T03:27:29.271Z,19.7
2018-07-26T03:28:31.593Z,19.7
2018-07-26T03:29:33.649Z,19.7
2018-07-26T03:30:36.370Z,19.7
2018-07-26T03:31:38.703Z,19.7
2018-07-26T03:32:40.749Z,19.7
2018-07-26T03:33:43.081Z,19.7
2018-07-26T03:34:45.137Z,19.7
2018-07-26T03:35:47.183Z,19.7
2018-07-26T03:36:49.232Z,19.7
2018-07-26T03:37:51.271Z,19.7
2018-07-26T03:38:53.329Z,19.7
2018-07-26T03:39:55.654Z,19.6
2018-07-26T03:40:57.699Z,19.6
2018-07-26T03:41:59.806Z,19.6
2018-07-26T03:43:01.842Z,19.6
2018-07-26T03:44:03.890Z,19.6
2018-07-26T03:45:05.931Z,19.6
2018-07-26T03:46:07.985Z,19.6
2018-07-26T03:47:10.324Z,19.6
2018-07-26T03:48:12.370Z,19.5
2018-07-26T03:49:14.420Z,19.5
2018-07-26T03:50:16.455Z,19.5
2018-07-26T03:51:18.612Z,19.5
2018-07-26T03:52:20.558Z,19.5
2018-07-26T03:53:22.603Z,19.5
2018-07-26T03:54:24.649Z,19.5
2018-07-26T03:55:26.702Z,19.5
2018-07-26T03:56:28.748Z,19.5
2018-07-26T03:57:30.793Z,19.5
2018-07-26T03:58:32.839Z,19.5
2018-07-26T03:59:34.872Z,19.5
2018-07-26T04:00:36.918Z,19.5
2018-07-26T04:01:39.556Z,19.5
2018-07-26T04:02:41.597Z,19.5
2018-07-26T04:03:43.640Z,19.5
2018-07-26T04:04:45.683Z,19.5
2018-07-26T04:05:47.739Z,19.6
2018-07-26T04:06:49.769Z,19.6
2018-07-26T04:07:51.826Z,19.6
2018-07-26T04:08:53.868Z,19.6
2018-07-26T04:09:55.925Z,19.5
2018-07-26T04:10:57.958Z,19.5
2018-07-26T04:12:00.018Z,19.5
2018-07-26T04:13:02.477Z,19.6
2018-07-26T04:14:04.911Z,19.6
2018-07-26T04:15:06.923Z,19.6
2018-07-26T04:16:22.079Z,19.6
2018-07-26T04:17:24.120Z,19.7
2018-07-26T04:18:26.546Z,19.7
2018-07-26T04:19:28.987Z,19.7
2018-07-26T04:20:31.022Z,19.7
2018-07-26T04:21:33.064Z,19.7
2018-07-26T04:22:35.116Z,19.7
2018-07-26T04:23:37.440Z,19.7
2018-07-26T04:24:39.490Z,19.7
2018-07-26T04:25:41.922Z,19.8
2018-07-26T04:26:44.345Z,19.8
2018-07-26T04:27:46.680Z,19.8
2018-07-26T04:28:48.739Z,19.9
2018-07-26T04:29:50.778Z,19.9
2018-07-26T04:30:52.821Z,19.9
2018-07-26T04:31:54.948Z,19.9
2018-07-26T04:32:56.894Z,19.9
2018-07-26T04:33:58.938Z,19.9
2018-07-26T04:35:01.376Z,19.9
2018-07-26T04:36:03.691Z,19.9
2018-07-26T04:37:06.130Z,19.9
2018-07-26T04:38:08.172Z,20
2018-07-26T04:39:10.216Z,20
2018-07-26T04:40:12.276Z,20
2018-07-26T04:41:14.315Z,20.1
2018-07-26T04:42:17.030Z,20.1
2018-07-26T04:43:19.458Z,20.1
2018-07-26T04:44:21.502Z,20.1
2018-07-26T04:45:24.235Z,20.2
2018-07-26T04:46:26.282Z,20.2
2018-07-26T04:47:28.327Z,20.3
2018-07-26T04:48:30.384Z,20.3
2018-07-26T04:49:32.419Z,20.3
2018-07-26T04:50:34.466Z,20.4
2018-07-26T04:51:36.812Z,20.4
2018-07-26T04:52:39.197Z,20.4
2018-07-26T04:53:41.215Z,20.5
2018-07-26T04:54:43.299Z,20.5
2018-07-26T04:55:45.314Z,20.5
2018-07-26T04:56:47.350Z,20.5
2018-07-26T04:57:49.797Z,20.6
2018-07-26T04:58:51.842Z,20.7
2018-07-26T04:59:53.886Z,20.8
2018-07-26T05:00:55.928Z,20.9
2018-07-26T05:01:57.987Z,20.9
2018-07-26T05:03:00.030Z,21
2018-07-26T05:04:02.077Z,21
2018-07-26T05:05:04.125Z,21.1
2018-07-26T05:06:06.159Z,21.2
2018-07-26T05:07:08.204Z,21.2
2018-07-26T05:08:10.321Z,21.3
2018-07-26T05:09:12.287Z,21.4
2018-07-26T05:10:14.337Z,21.4
2018-07-26T05:11:16.385Z,21.4
2018-07-26T05:12:18.429Z,21.4
2018-07-26T05:13:20.487Z,21.5
2018-07-26T05:14:22.525Z,21.5
2018-07-26T05:15:24.569Z,21.5
2018-07-26T05:16:26.609Z,21.6
2018-07-26T05:17:28.668Z,21.6
2018-07-26T05:18:30.734Z,21.7
2018-07-26T05:19:32.754Z,21.7
2018-07-26T05:20:34.799Z,21.8
2018-07-26T05:21:36.835Z,21.8
2018-07-26T05:22:38.894Z,21.9
2018-07-26T05:23:40.938Z,22
2018-07-26T05:24:43.373Z,22
2018-07-26T05:25:45.411Z,22
2018-07-26T05:26:47.465Z,22.1
2018-07-26T05:27:50.280Z,22.1
2018-07-26T05:28:52.297Z,22.2
2018-07-26T05:29:54.352Z,22.3
2018-07-26T05:30:56.388Z,22.3
2018-07-26T05:31:58.725Z,22.4
2018-07-26T05:33:01.063Z,22.5
2018-07-26T05:34:03.493Z,22.5
2018-07-26T05:35:05.528Z,22.5
2018-07-26T05:36:07.575Z,22.6
2018-07-26T05:37:09.903Z,22.6
2018-07-26T05:38:11.953Z,22.6
2018-07-26T05:39:14.009Z,22.7
2018-07-26T05:40:16.054Z,22.7
2018-07-26T05:41:18.771Z,22.8
2018-07-26T05:42:21.119Z,22.9
2018-07-26T05:43:23.160Z,22.9
2018-07-26T05:44:25.212Z,23
2018-07-26T05:45:27.263Z,23
2018-07-26T05:46:29.303Z,23
2018-07-26T05:47:31.748Z,23.1
2018-07-26T05:48:33.797Z,23.3
2018-07-26T05:49:35.853Z,23.2
2018-07-26T05:50:38.168Z,23.2
2018-07-26T05:51:40.225Z,23.2
2018-07-26T05:52:42.273Z,23.3
2018-07-26T05:53:44.325Z,23.3
2018-07-26T05:54:46.384Z,23.3
2018-07-26T05:55:48.423Z,23.4
2018-07-26T05:56:50.470Z,23.5
2018-07-26T05:57:52.517Z,23.5
2018-07-26T05:58:54.886Z,23.5
2018-07-26T05:59:56.930Z,23.6
2018-07-26T06:00:58.976Z,23.7
2018-07-26T06:02:01.307Z,23.7
2018-07-26T06:03:03.366Z,23.8
2018-07-26T06:04:05.406Z,23.8
2018-07-26T06:05:07.454Z,23.9
2018-07-26T06:06:09.901Z,23.9
2018-07-26T06:07:11.945Z,24
2018-07-26T06:08:13.993Z,24
2018-07-26T06:09:16.036Z,24
2018-07-26T06:10:18.089Z,24
2018-07-26T06:11:20.422Z,24
2018-07-26T06:12:22.777Z,24.1
2018-07-26T06:13:24.829Z,24.1
2018-07-26T06:14:26.871Z,24.2
2018-07-26T06:15:28.930Z,24.2
2018-07-26T06:16:30.972Z,24.3
2018-07-26T06:17:33.019Z,24.4
2018-07-26T06:18:35.066Z,24.4
2018-07-26T06:19:37.101Z,24.4
2018-07-26T06:20:39.180Z,24.5
2018-07-26T06:21:41.206Z,24.5
2018-07-26T06:22:43.271Z,24.5
2018-07-26T06:23:45.587Z,24.5
2018-07-26T06:24:47.936Z,24.6
2018-07-26T06:25:49.987Z,24.6
2018-07-26T06:26:52.314Z,24.6
2018-07-26T06:27:54.405Z,24.7
2018-07-26T06:28:56.414Z,24.7
2018-07-26T06:29:58.467Z,24.7
2018-07-26T06:31:00.507Z,24.7
2018-07-26T06:32:02.959Z,24.8
2018-07-26T06:33:04.997Z,24.7
2018-07-26T06:34:07.049Z,24.8
2018-07-26T06:35:09.105Z,24.8
2018-07-26T06:36:11.148Z,24.9
2018-07-26T06:37:13.206Z,24.8
2018-07-26T06:38:15.543Z,24.9
2018-07-26T06:39:17.597Z,24.9
2018-07-26T06:40:19.647Z,24.9
2018-07-26T06:41:21.685Z,24.9
2018-07-26T06:42:23.736Z,25
2018-07-26T06:43:25.782Z,25
2018-07-26T06:44:27.833Z,25
2018-07-26T06:45:29.892Z,25.1
2018-07-26T06:46:31.942Z,25.1
2018-07-26T06:47:33.988Z,25.1
2018-07-26T06:48:36.049Z,25.2
2018-07-26T06:49:38.095Z,25.2
2018-07-26T06:50:40.430Z,25.3
2018-07-26T06:51:42.480Z,25.3
2018-07-26T06:52:44.518Z,25.4
2018-07-26T06:53:46.855Z,25.4
2018-07-26T06:54:48.908Z,25.5
2018-07-26T06:55:51.263Z,25.5
2018-07-26T06:56:53.303Z,25.5
2018-07-26T06:57:55.364Z,25.5
2018-07-26T06:58:57.419Z,25.6
2018-07-26T06:59:59.748Z,25.6
2018-07-26T07:01:01.811Z,25.6
2018-07-26T07:02:04.244Z,25.6
2018-07-26T07:03:06.295Z,25.7
2018-07-26T07:04:08.345Z,25.7
2018-07-26T07:05:10.699Z,25.7
2018-07-26T07:06:12.745Z,25.8
2018-07-26T07:07:14.802Z,25.9
2018-07-26T07:08:17.139Z,25.9
2018-07-26T07:09:19.476Z,25.9
2018-07-26T07:10:21.537Z,25.9
2018-07-26T07:11:23.587Z,26
2018-07-26T07:12:25.636Z,26
2018-07-26T07:13:27.686Z,26
2018-07-26T07:14:30.046Z,26.1
2018-07-26T07:15:32.103Z,26.1
2018-07-26T07:16:34.160Z,26.2
2018-07-26T07:17:36.214Z,26.3
2018-07-26T07:18:38.661Z,26.3
2018-07-26T07:19:41.097Z,26.3
2018-07-26T07:20:43.147Z,26.4
2018-07-26T07:21:45.205Z,26.4
2018-07-26T07:22:47.640Z,26.4
2018-07-26T07:23:49.993Z,26.5
2018-07-26T07:24:52.344Z,26.6
2018-07-26T07:25:54.387Z,26.6
2018-07-26T07:26:56.445Z,26.6
2018-07-26T07:27:58.786Z,26.7
2018-07-26T07:29:00.846Z,26.7
2018-07-26T07:30:03.273Z,26.8
2018-07-26T07:31:05.336Z,26.8
2018-07-26T07:32:07.391Z,26.9
2018-07-26T07:33:09.461Z,27
2018-07-26T07:34:12.177Z,27
2018-07-26T07:35:14.218Z,27.1
2018-07-26T07:36:16.268Z,27.2
2018-07-26T07:37:18.317Z,27.3
2018-07-26T07:38:20.395Z,27.3
2018-07-26T07:39:22.455Z,27.4
2018-07-26T07:40:24.530Z,27.4
2018-07-26T07:41:26.543Z,27.5
2018-07-26T07:42:28.580Z,27.5
2018-07-26T07:43:30.922Z,27.6
2018-07-26T07:44:33.648Z,27.6
2018-07-26T07:45:35.694Z,27.6
2018-07-26T07:46:37.793Z,27.7
2018-07-26T07:47:39.869Z,27.8
2018-07-26T07:48:41.866Z,27.9
2018-07-26T07:49:43.912Z,27.9
2018-07-26T07:50:46.263Z,28
2018-07-26T07:51:48.302Z,28
2018-07-26T07:52:50.409Z,28
2018-07-26T07:53:52.415Z,28.1
2018-07-26T07:54:55.129Z,28.1
2018-07-26T07:55:57.186Z,28.2
2018-07-26T07:56:59.238Z,28.3
2018-07-26T07:58:01.299Z,28.3
2018-07-26T07:59:03.647Z,28.3
2018-07-26T08:00:05.692Z,28.4
2018-07-26T08:01:08.030Z,28.4
2018-07-26T08:02:10.076Z,28.4
2018-07-26T08:03:12.428Z,28.5
2018-07-26T08:04:14.468Z,28.5
2018-07-26T08:05:16.998Z,28.6
2018-07-26T08:06:18.987Z,28.7
2018-07-26T08:07:21.029Z,28.7
2018-07-26T08:08:23.094Z,28.8
2018-07-26T08:09:25.147Z,28.8
2018-07-26T08:10:27.204Z,28.7
2018-07-26T08:11:29.637Z,28.8
2018-07-26T08:12:31.763Z,28.9
2018-07-26T08:13:34.048Z,29
2018-07-26T08:14:36.386Z,29.1
2018-07-26T08:15:38.736Z,29.1
2018-07-26T08:16:40.777Z,29.2
2018-07-26T08:17:42.835Z,29.1
2018-07-26T08:18:45.187Z,29.3
2018-07-26T08:19:47.528Z,29.2
2018-07-26T08:20:49.570Z,29.3
2018-07-26T08:21:51.917Z,29.4
2018-07-26T08:22:53.974Z,29.5
2018-07-26T08:23:56.037Z,29.5
2018-07-26T08:24:58.103Z,29.5
2018-07-26T08:26:00.161Z,29.6
2018-07-26T08:27:02.208Z,29.6
2018-07-26T08:28:04.270Z,29.7
2018-07-26T08:29:06.326Z,29.7
2018-07-26T08:30:08.382Z,29.8
2018-07-26T08:31:10.431Z,29.9
2018-07-26T08:32:12.795Z,29.9
2018-07-26T08:33:15.144Z,30
2018-07-26T08:34:17.205Z,29.9
2018-07-26T08:35:19.254Z,30
2018-07-26T08:36:21.316Z,30.1
2018-07-26T08:37:23.359Z,30.3
2018-07-26T08:38:25.704Z,30.4
2018-07-26T08:39:27.759Z,30.4
2018-07-26T08:40:29.804Z,30.5
2018-07-26T08:41:31.868Z,30.5
2018-07-26T08:42:33.926Z,30.5
2018-07-26T08:43:36.050Z,30.6
2018-07-26T08:44:38.357Z,30.7
2018-07-26T08:45:40.420Z,30.8
2018-07-26T08:46:42.485Z,31
2018-07-26T08:47:44.538Z,30.8
2018-07-26T08:48:47.349Z,30.7
2018-07-26T08:49:49.396Z,31
2018-07-26T08:50:51.453Z,31
2018-07-26T08:51:53.509Z,31.2
2018-07-26T08:52:55.569Z,31.3
2018-07-26T08:53:57.613Z,31.3
2018-07-26T08:54:59.964Z,31.5
2018-07-26T08:56:02.025Z,31.6
2018-07-26T08:57:04.088Z,31.5
2018-07-26T08:58:06.442Z,31.5
2018-07-26T08:59:08.501Z,31.8
2018-07-26T09:00:10.829Z,31.9
2018-07-26T09:01:12.945Z,31.9
2018-07-26T09:02:14.955Z,32
2018-07-26T09:03:17.008Z,31.6
2018-07-26T09:04:21.741Z,32
2018-07-26T09:05:24.118Z,32.2
2018-07-26T09:06:26.182Z,32.3
2018-07-26T09:07:28.238Z,32.2
2018-07-26T09:08:30.690Z,32.3
2018-07-26T09:09:32.749Z,32.5
2018-07-26T09:10:34.793Z,32.5
2018-07-26T09:11:36.905Z,32.3
2018-07-26T09:12:39.276Z,32.5
2018-07-26T09:13:41.352Z,32.5
2018-07-26T09:14:44.064Z,32.5
2018-07-26T09:15:46.131Z,32.5
2018-07-26T09:16:48.193Z,32.5
2018-07-26T09:17:50.244Z,32.5
2018-07-26T09:18:52.314Z,33
2018-07-26T09:19:54.378Z,33
2018-07-26T09:20:56.429Z,32.8
2018-07-26T09:21:58.509Z,32.5
2018-07-26T09:23:00.608Z,32.5
2018-07-26T09:24:02.666Z,32.6
2018-07-26T09:25:04.734Z,32.7
2018-07-26T09:26:07.127Z,32.5
2018-07-26T09:27:09.122Z,32.5
2018-07-26T09:28:11.183Z,32.5
2018-07-26T09:29:13.534Z,32.8
2018-07-26T09:30:16.270Z,32.8
2018-07-26T09:31:18.343Z,32.9
2018-07-26T09:32:20.403Z,33.1
2018-07-26T09:33:22.901Z,33.2
2018-07-26T09:34:25.319Z,33.2
2018-07-26T09:35:27.916Z,33.1
2018-07-26T09:36:29.910Z,33
2018-07-26T09:37:31.974Z,32.9
2018-07-26T09:38:34.022Z,32.5
2018-07-26T09:39:36.085Z,32.9
2018-07-26T09:40:38.432Z,33.2
2018-07-26T09:41:40.501Z,33
2018-07-26T09:42:42.850Z,32.7
2018-07-26T09:43:45.213Z,33.1
2018-07-26T09:44:47.274Z,32.9
2018-07-26T09:45:49.338Z,33.3
2018-07-26T09:46:51.403Z,33.1
2018-07-26T09:47:53.479Z,33.4
2018-07-26T09:48:57.568Z,33.4
2018-07-26T09:49:59.645Z,33.7
2018-07-26T09:51:01.725Z,33.5
2018-07-26T09:52:03.802Z,33.6
2018-07-26T09:53:06.149Z,33.6
2018-07-26T09:54:08.211Z,33.9
2018-07-26T09:55:10.288Z,33.9
2018-07-26T09:56:12.340Z,34.2
2018-07-26T09:57:14.697Z,34
2018-07-26T09:58:17.062Z,33.6
2018-07-26T09:59:19.134Z,34
2018-07-26T10:00:21.662Z,33.4
2018-07-26T10:01:23.696Z,33.2
2018-07-26T10:02:25.760Z,33.5
2018-07-26T10:03:27.826Z,33.8
2018-07-26T10:04:29.903Z,33.9
2018-07-26T10:05:31.979Z,33.9
2018-07-26T10:06:34.041Z,33.7
2018-07-26T10:07:36.122Z,33.7
2018-07-26T10:08:38.177Z,33.7
2018-07-26T10:09:40.305Z,34
2018-07-26T10:10:42.377Z,34
2018-07-26T10:11:44.433Z,33.8
2018-07-26T10:12:46.510Z,34.3
2018-07-26T10:13:48.579Z,34.8
2018-07-26T10:14:50.650Z,35
2018-07-26T10:15:53.031Z,34.7
2018-07-26T10:16:55.384Z,34.9
2018-07-26T10:17:57.452Z,34.9
2018-07-26T10:18:59.525Z,34.5
2018-07-26T10:20:02.272Z,34.5
2018-07-26T10:21:04.263Z,34.7
2018-07-26T10:22:06.715Z,35
2018-07-26T10:23:08.776Z,35.3
2018-07-26T10:24:10.869Z,35.4
2018-07-26T10:25:13.221Z,35.1
2018-07-26T10:26:15.291Z,35
2018-07-26T10:27:17.366Z,34.7
2018-07-26T10:28:19.421Z,34.7
2018-07-26T10:29:21.500Z,34.8
2018-07-26T10:30:23.568Z,34.9
2018-07-26T10:31:25.629Z,34.9
2018-07-26T10:32:27.698Z,34.9
2018-07-26T10:33:29.786Z,35.1
2018-07-26T10:34:31.852Z,35.1
2018-07-26T10:35:34.207Z,35.4
2018-07-26T10:36:36.656Z,35.1
2018-07-26T10:37:39.009Z,35.1
2018-07-26T10:38:41.083Z,35.3
2018-07-26T10:39:43.441Z,35.4
2018-07-26T10:40:45.497Z,35.3
2018-07-26T10:41:47.851Z,35.2
2018-07-26T10:42:49.922Z,35.3
2018-07-26T10:43:51.986Z,35.5
2018-07-26T10:44:54.065Z,35.2
2018-07-26T10:45:56.513Z,35.1
2018-07-26T10:46:58.585Z,35.1
2018-07-26T10:48:00.648Z,35.2
2018-07-26T10:49:02.725Z,35.5
2018-07-26T10:50:04.795Z,35.3
2018-07-26T10:51:06.853Z,35.4
2018-07-26T10:52:08.919Z,35.5
2018-07-26T10:53:10.976Z,35.7
2018-07-26T10:54:13.051Z,36
2018-07-26T10:55:15.119Z,35.5
2018-07-26T10:56:17.575Z,35.7
2018-07-26T10:57:19.633Z,35.8
2018-07-26T10:58:22.107Z,35.4
2018-07-26T10:59:24.174Z,35.5
2018-07-26T11:00:27.103Z,35.2
2018-07-26T11:01:29.493Z,35.4
2018-07-26T11:02:31.558Z,35.4
2018-07-26T11:03:33.627Z,35.3
2018-07-26T11:04:35.690Z,35.8
2018-07-26T11:05:37.760Z,35.8
2018-07-26T11:06:39.841Z,36
2018-07-26T11:07:41.910Z,36
2018-07-26T11:08:43.977Z,36
2018-07-26T11:09:46.047Z,36
2018-07-26T11:10:48.107Z,36
2018-07-26T11:11:50.177Z,35.7
2018-07-26T11:12:52.250Z,35.5
2018-07-26T11:13:54.312Z,35.7
2018-07-26T11:14:56.785Z,36
2018-07-26T11:15:58.857Z,35.9
2018-07-26T11:17:00.925Z,36
2018-07-26T11:18:03.001Z,35.9
2018-07-26T11:19:05.176Z,35.9
2018-07-26T11:20:07.134Z,35.8
2018-07-26T11:21:09.196Z,36.1
2018-07-26T11:22:11.274Z,36.6
2018-07-26T11:23:13.333Z,36.6
2018-07-26T11:24:15.418Z,36.2
2018-07-26T11:25:17.468Z,36.3
2018-07-26T11:26:19.527Z,36.8
2018-07-26T11:27:21.614Z,36.4
2018-07-26T11:28:23.683Z,36.2
2018-07-26T11:29:26.145Z,36.4
2018-07-26T11:30:28.199Z,36.5
2018-07-26T11:31:30.274Z,36.3
2018-07-26T11:32:32.344Z,36.5
2018-07-26T11:33:34.410Z,36.8
2018-07-26T11:34:36.779Z,36.7
2018-07-26T11:35:38.837Z,36.3
2018-07-26T11:36:40.910Z,36.7
2018-07-26T11:37:42.980Z,36.3
2018-07-26T11:38:45.063Z,36.3
2018-07-26T11:39:47.137Z,36.5
2018-07-26T11:40:49.498Z,36.5
2018-07-26T11:41:51.651Z,36.2
2018-07-26T11:42:53.641Z,35.9
2018-07-26T11:43:55.720Z,36.3
2018-07-26T11:44:57.795Z,35.7
2018-07-26T11:45:59.859Z,35.9
2018-07-26T11:47:01.940Z,35
2018-07-26T11:48:04.297Z,34.8
2018-07-26T11:49:06.708Z,35.4
2018-07-26T11:50:08.808Z,34.7
2018-07-26T11:51:10.839Z,34.6
2018-07-26T11:52:12.911Z,34.2
2018-07-26T11:53:14.981Z,34.4
2018-07-26T11:54:17.056Z,35.2
2018-07-26T11:55:19.116Z,35
2018-07-26T11:56:21.197Z,35.1
2018-07-26T11:57:23.992Z,35.4
2018-07-26T11:58:26.119Z,35.7
2018-07-26T11:59:28.203Z,35.5
2018-07-26T12:00:30.258Z,35.6
2018-07-26T12:01:32.342Z,35.9
2018-07-26T12:02:34.488Z,36.4
2018-07-26T12:03:36.474Z,36
2018-07-26T12:04:38.573Z,36.2
2018-07-26T12:05:40.636Z,36.3
2018-07-26T12:06:42.718Z,36.5
2018-07-26T12:07:44.776Z,36.4
2018-07-26T12:08:46.870Z,36
2018-07-26T12:09:48.963Z,36.2
2018-07-26T12:10:51.309Z,36.2
2018-07-26T12:11:53.491Z,36.5
2018-07-26T12:12:55.572Z,36.7
2018-07-26T12:13:57.638Z,36.5
2018-07-26T12:14:59.712Z,36.3
2018-07-26T12:16:01.778Z,36.1
2018-07-26T12:17:03.844Z,35.8
2018-07-26T12:18:05.909Z,36
2018-07-26T12:19:07.977Z,36.9
2018-07-26T12:20:10.060Z,36.7
2018-07-26T12:21:12.127Z,36.3
2018-07-26T12:22:14.201Z,36.7
2018-07-26T12:23:16.269Z,37
2018-07-26T12:24:18.616Z,37.2
2018-07-26T12:25:21.078Z,37
2018-07-26T12:26:23.435Z,37.3
2018-07-26T12:27:25.512Z,37.2
2018-07-26T12:28:27.852Z,37.4
2018-07-26T12:29:29.932Z,37.6
2018-07-26T12:30:32.002Z,37.1
2018-07-26T12:31:34.074Z,36.8
2018-07-26T12:32:36.153Z,36.6
2018-07-26T12:33:38.217Z,36.6
2018-07-26T12:34:40.289Z,36.5
2018-07-26T12:35:42.358Z,35.9
2018-07-26T12:36:44.729Z,35.5
2018-07-26T12:37:47.093Z,35.1
2018-07-26T12:38:49.162Z,34.9
2018-07-26T12:39:51.521Z,35.2
2018-07-26T12:40:53.578Z,35.3
2018-07-26T12:41:56.049Z,35.3
2018-07-26T12:42:58.121Z,34.6
2018-07-26T12:44:00.183Z,34.4
2018-07-26T12:45:02.643Z,34.5
2018-07-26T12:46:05.032Z,34.3
2018-07-26T12:47:07.385Z,34.5
2018-07-26T12:48:09.453Z,34.8
2018-07-26T12:49:11.813Z,35.3
2018-07-26T12:50:13.869Z,35.1
2018-07-26T12:51:16.621Z,35.8
2018-07-26T12:52:19.083Z,35.7
2018-07-26T12:53:21.137Z,35.5
2018-07-26T12:54:23.217Z,35.7
2018-07-26T12:55:25.279Z,35.9
2018-07-26T12:56:27.349Z,35.6
2018-07-26T12:57:29.428Z,35.5
2018-07-26T12:58:31.494Z,35.6
2018-07-26T12:59:33.559Z,35.8
2018-07-26T13:00:35.624Z,36.3
2018-07-26T13:01:37.786Z,36.1
2018-07-26T13:02:39.765Z,35.8
2018-07-26T13:03:41.835Z,35.8
2018-07-26T13:04:43.903Z,35.3
2018-07-26T13:05:45.958Z,35.2
2018-07-26T13:06:48.035Z,35
2018-07-26T13:07:50.103Z,35.1
2018-07-26T13:08:52.216Z,35.5
2018-07-26T13:09:54.550Z,35
2018-07-26T13:10:56.632Z,34.8
2018-07-26T13:11:58.700Z,34.7
2018-07-26T13:13:01.074Z,35.3
2018-07-26T13:14:03.154Z,35.5
2018-07-26T13:15:05.214Z,35.7
2018-07-26T13:16:07.565Z,35.9
2018-07-26T13:17:10.042Z,36.1
2018-07-26T13:18:12.108Z,35.9
2018-07-26T13:19:14.164Z,35.8
2018-07-26T13:20:16.530Z,36.1
2018-07-26T13:21:18.597Z,36.7
2018-07-26T13:22:20.666Z,36.8
2018-07-26T13:23:22.748Z,37.1
2018-07-26T13:24:24.820Z,37.2
2018-07-26T13:25:27.895Z,37.1
2018-07-26T13:26:30.214Z,37.2
2018-07-26T13:27:32.555Z,37.2
2018-07-26T13:28:35.075Z,37
2018-07-26T13:29:37.893Z,37.1
2018-07-26T13:30:41.203Z,36.3
2018-07-26T13:31:44.058Z,37
2018-07-26T13:32:46.476Z,37.2
2018-07-26T13:33:49.321Z,36.5
2018-07-26T13:34:51.741Z,36.9
2018-07-26T13:35:54.893Z,36.4
2018-07-26T13:36:57.848Z,36.5
2018-07-26T13:38:02.120Z,36.5
2018-07-26T13:39:04.398Z,36.4
2018-07-26T13:40:07.091Z,37
2018-07-26T13:41:09.690Z,37.5
2018-07-26T13:42:12.184Z,37.1
2018-07-26T13:43:14.725Z,36.4
2018-07-26T13:44:18.671Z,35.9
2018-07-26T13:45:21.867Z,35.5
2018-07-26T13:46:25.102Z,35.1
2018-07-26T13:47:29.091Z,35.3
2018-07-26T13:48:31.588Z,35
2018-07-26T13:49:34.984Z,34.7
2018-07-26T13:50:38.359Z,34.6
2018-07-26T13:51:41.710Z,34.3
2018-07-26T13:52:45.131Z,34.8
2018-07-26T13:53:48.305Z,34.7
2018-07-26T13:54:51.655Z,34.9